sensor_id;sensor_type;location;lat;lon;timestamp;temperature;humidity
14614;DHT22;7393;51.446;6.800;2023-07-09T00:01:47;26.40;1.00
14614;DHT22;7393;51.446;6.800;2023-07-09T00:04:14;26.30;1.00
14614;DHT22;7393;51.446;6.800;2023-07-09T00:06:41;26.30;1.00
14614;DHT22;7393;51.446;6.800;2023-07-09T00:09:13;26.20;1.00
14614;DHT22;7393;51.446;6.800;2023-07-09T00:11:40;26.20;1.00
14614;DHT22;7393;51.446;6.800;2023-07-09T00:14:08;26.20;1.00
14614;DHT22;7393;51.446;6.800;2023-07-09T00:16:36;26.20;1.00
14614;DHT22;7393;51.446;6.800;2023-07-09T00:19:05;26.20;1.00
14614;DHT22;7393;51.446;6.800;2023-07-09T00:21:37;26.10;1.00
14614;DHT22;7393;51.446;6.800;2023-07-09T00:24:04;26.10;1.00
14614;DHT22;7393;51.446;6.800;2023-07-09T00:26:31;26.00;1.00
14614;DHT22;7393;51.446;6.800;2023-07-09T00:28:58;26.00;1.00
14614;DHT22;7393;51.446;6.800;2023-07-09T00:31:25;26.00;1.00
14614;DHT22;7393;51.446;6.800;2023-07-09T00:33:52;26.00;1.00
14614;DHT22;7393;51.446;6.800;2023-07-09T00:36:26;25.90;1.00
14614;DHT22;7393;51.446;6.800;2023-07-09T00:38:54;25.80;1.00
14614;DHT22;7393;51.446;6.800;2023-07-09T00:41:25;25.80;1.00
14614;DHT22;7393;51.446;6.800;2023-07-09T00:43:53;25.80;1.00
14614;DHT22;7393;51.446;6.800;2023-07-09T00:49:32;25.70;1.00
14614;DHT22;7393;51.446;6.800;2023-07-09T00:52:01;25.70;1.00
14614;DHT22;7393;51.446;6.800;2023-07-09T00:54:32;25.70;1.00
14614;DHT22;7393;51.446;6.800;2023-07-09T00:57:06;25.70;1.00
14614;DHT22;7393;51.446;6.800;2023-07-09T00:59:34;25.70;1.00
14614;DHT22;7393;51.446;6.800;2023-07-09T01:02:01;25.60;1.00
14614;DHT22;7393;51.446;6.800;2023-07-09T01:04:29;25.50;1.00
14614;DHT22;7393;51.446;6.800;2023-07-09T01:06:57;25.50;1.00
14614;DHT22;7393;51.446;6.800;2023-07-09T01:09:25;25.50;1.00
14614;DHT22;7393;51.446;6.800;2023-07-09T01:11:52;25.50;1.00
14614;DHT22;7393;51.446;6.800;2023-07-09T01:14:23;25.60;1.00
14614;DHT22;7393;51.446;6.800;2023-07-09T01:16:53;25.50;1.00
14614;DHT22;7393;51.446;6.800;2023-07-09T01:19:23;25.60;1.00
14614;DHT22;7393;51.446;6.800;2023-07-09T01:21:53;25.50;1.00
14614;DHT22;7393;51.446;6.800;2023-07-09T01:24:47;25.50;1.00
14614;DHT22;7393;51.446;6.800;2023-07-09T01:27:14;25.50;1.00
14614;DHT22;7393;51.446;6.800;2023-07-09T01:29:42;25.40;1.00
14614;DHT22;7393;51.446;6.800;2023-07-09T01:32:13;25.40;1.00
14614;DHT22;7393;51.446;6.800;2023-07-09T01:34:40;25.40;1.00
14614;DHT22;7393;51.446;6.800;2023-07-09T01:37:09;25.30;1.00
14614;DHT22;7393;51.446;6.800;2023-07-09T01:39:35;25.20;1.00
14614;DHT22;7393;51.446;6.800;2023-07-09T01:42:03;25.20;1.00
14614;DHT22;7393;51.446;6.800;2023-07-09T01:44:31;25.10;1.00
14614;DHT22;7393;51.446;6.800;2023-07-09T01:46:58;25.10;1.00
14614;DHT22;7393;51.446;6.800;2023-07-09T01:49:27;25.10;1.00
14614;DHT22;7393;51.446;6.800;2023-07-09T01:51:55;25.10;1.00
14614;DHT22;7393;51.446;6.800;2023-07-09T01:54:23;25.10;1.00
14614;DHT22;7393;51.446;6.800;2023-07-09T01:56:50;25.00;1.00
14614;DHT22;7393;51.446;6.800;2023-07-09T01:59:27;25.10;1.00
14614;DHT22;7393;51.446;6.800;2023-07-09T02:01:53;25.10;1.00
14614;DHT22;7393;51.446;6.800;2023-07-09T02:04:23;25.00;1.00
14614;DHT22;7393;51.446;6.800;2023-07-09T02:06:52;25.00;1.00
14614;DHT22;7393;51.446;6.800;2023-07-09T02:09:19;24.90;1.00
14614;DHT22;7393;51.446;6.800;2023-07-09T02:11:47;24.90;1.00
14614;DHT22;7393;51.446;6.800;2023-07-09T02:14:14;24.80;1.00
14614;DHT22;7393;51.446;6.800;2023-07-09T02:16:41;24.70;1.00
14614;DHT22;7393;51.446;6.800;2023-07-09T02:19:08;24.70;1.00
14614;DHT22;7393;51.446;6.800;2023-07-09T02:21:35;24.60;1.00
14614;DHT22;7393;51.446;6.800;2023-07-09T02:24:02;24.60;1.00
14614;DHT22;7393;51.446;6.800;2023-07-09T02:26:29;24.60;1.00
14614;DHT22;7393;51.446;6.800;2023-07-09T02:28:57;24.60;1.00
14614;DHT22;7393;51.446;6.800;2023-07-09T02:31:24;24.70;1.00
14614;DHT22;7393;51.446;6.800;2023-07-09T02:33:55;24.70;1.00
14614;DHT22;7393;51.446;6.800;2023-07-09T02:36:23;24.60;1.00
14614;DHT22;7393;51.446;6.800;2023-07-09T02:38:50;24.60;1.00
14614;DHT22;7393;51.446;6.800;2023-07-09T02:41:17;24.60;1.00
14614;DHT22;7393;51.446;6.800;2023-07-09T02:43:44;24.60;1.00
14614;DHT22;7393;51.446;6.800;2023-07-09T02:46:12;24.60;1.00
14614;DHT22;7393;51.446;6.800;2023-07-09T02:48:39;24.50;1.00
14614;DHT22;7393;51.446;6.800;2023-07-09T02:51:05;24.50;1.00
14614;DHT22;7393;51.446;6.800;2023-07-09T02:53:32;24.40;1.00
14614;DHT22;7393;51.446;6.800;2023-07-09T02:55:59;24.40;1.00
14614;DHT22;7393;51.446;6.800;2023-07-09T02:58:26;24.40;1.00
14614;DHT22;7393;51.446;6.800;2023-07-09T03:00:52;24.40;1.00
14614;DHT22;7393;51.446;6.800;2023-07-09T03:03:21;24.40;1.00
14614;DHT22;7393;51.446;6.800;2023-07-09T03:05:48;24.30;1.00
14614;DHT22;7393;51.446;6.800;2023-07-09T03:08:14;24.30;1.00
14614;DHT22;7393;51.446;6.800;2023-07-09T03:10:41;24.20;1.00
14614;DHT22;7393;51.446;6.800;2023-07-09T03:13:08;24.20;1.00
14614;DHT22;7393;51.446;6.800;2023-07-09T03:15:35;24.10;1.00
14614;DHT22;7393;51.446;6.800;2023-07-09T03:18:02;24.10;1.00
14614;DHT22;7393;51.446;6.800;2023-07-09T03:20:30;24.10;1.00
14614;DHT22;7393;51.446;6.800;2023-07-09T03:22:57;24.10;1.00
14614;DHT22;7393;51.446;6.800;2023-07-09T03:25:23;24.10;1.00
14614;DHT22;7393;51.446;6.800;2023-07-09T03:27:50;24.10;1.00
14614;DHT22;7393;51.446;6.800;2023-07-09T03:30:17;24.10;1.00
14614;DHT22;7393;51.446;6.800;2023-07-09T03:32:44;24.10;1.00
14614;DHT22;7393;51.446;6.800;2023-07-09T03:35:11;24.10;1.00
14614;DHT22;7393;51.446;6.800;2023-07-09T03:37:39;24.00;1.00
14614;DHT22;7393;51.446;6.800;2023-07-09T03:40:09;24.00;1.00
14614;DHT22;7393;51.446;6.800;2023-07-09T03:42:36;24.00;1.00
14614;DHT22;7393;51.446;6.800;2023-07-09T03:45:03;23.90;1.00
14614;DHT22;7393;51.446;6.800;2023-07-09T03:47:30;24.00;1.00
14614;DHT22;7393;51.446;6.800;2023-07-09T03:49:57;23.90;1.00
14614;DHT22;7393;51.446;6.800;2023-07-09T03:52:24;23.90;1.00
14614;DHT22;7393;51.446;6.800;2023-07-09T03:54:52;23.90;1.00
14614;DHT22;7393;51.446;6.800;2023-07-09T03:57:19;23.80;1.00
14614;DHT22;7393;51.446;6.800;2023-07-09T03:59:45;23.80;1.00
14614;DHT22;7393;51.446;6.800;2023-07-09T04:02:12;23.80;1.00
14614;DHT22;7393;51.446;6.800;2023-07-09T04:04:39;23.80;1.00
14614;DHT22;7393;51.446;6.800;2023-07-09T04:07:06;23.80;1.00
14614;DHT22;7393;51.446;6.800;2023-07-09T04:09:33;23.80;1.00
14614;DHT22;7393;51.446;6.800;2023-07-09T04:12:01;23.80;1.00
14614;DHT22;7393;51.446;6.800;2023-07-09T04:14:28;23.70;1.00
14614;DHT22;7393;51.446;6.800;2023-07-09T04:16:55;23.70;1.00
14614;DHT22;7393;51.446;6.800;2023-07-09T04:19:23;23.70;1.00
14614;DHT22;7393;51.446;6.800;2023-07-09T04:21:50;23.70;1.00
14614;DHT22;7393;51.446;6.800;2023-07-09T04:24:17;23.70;1.00
14614;DHT22;7393;51.446;6.800;2023-07-09T04:26:44;23.70;1.00
14614;DHT22;7393;51.446;6.800;2023-07-09T04:29:13;23.70;1.00
14614;DHT22;7393;51.446;6.800;2023-07-09T04:31:40;23.70;1.00
14614;DHT22;7393;51.446;6.800;2023-07-09T04:34:07;23.70;1.00
14614;DHT22;7393;51.446;6.800;2023-07-09T04:36:34;23.70;1.00
14614;DHT22;7393;51.446;6.800;2023-07-09T04:39:01;23.70;1.00
14614;DHT22;7393;51.446;6.800;2023-07-09T04:41:29;23.70;1.00
14614;DHT22;7393;51.446;6.800;2023-07-09T04:43:55;23.70;1.00
14614;DHT22;7393;51.446;6.800;2023-07-09T04:46:23;23.70;1.00
14614;DHT22;7393;51.446;6.800;2023-07-09T04:48:50;23.70;1.00
14614;DHT22;7393;51.446;6.800;2023-07-09T04:51:17;23.70;1.00
14614;DHT22;7393;51.446;6.800;2023-07-09T04:53:44;23.70;1.00
14614;DHT22;7393;51.446;6.800;2023-07-09T04:56:11;23.70;1.00
14614;DHT22;7393;51.446;6.800;2023-07-09T04:58:38;23.80;1.00
14614;DHT22;7393;51.446;6.800;2023-07-09T05:01:05;23.80;1.00
14614;DHT22;7393;51.446;6.800;2023-07-09T05:03:33;23.90;1.00
14614;DHT22;7393;51.446;6.800;2023-07-09T05:06:00;23.90;1.00
14614;DHT22;7393;51.446;6.800;2023-07-09T05:08:26;24.00;1.00
14614;DHT22;7393;51.446;6.800;2023-07-09T05:10:54;24.00;1.00
14614;DHT22;7393;51.446;6.800;2023-07-09T05:13:20;24.20;1.00
14614;DHT22;7393;51.446;6.800;2023-07-09T05:15:48;24.30;1.00
14614;DHT22;7393;51.446;6.800;2023-07-09T05:18:16;24.30;1.00
14614;DHT22;7393;51.446;6.800;2023-07-09T05:20:46;24.40;1.00
14614;DHT22;7393;51.446;6.800;2023-07-09T05:23:13;24.50;1.00
14614;DHT22;7393;51.446;6.800;2023-07-09T05:25:40;24.50;1.00
14614;DHT22;7393;51.446;6.800;2023-07-09T05:28:07;24.60;1.00
14614;DHT22;7393;51.446;6.800;2023-07-09T05:30:34;24.70;1.00
14614;DHT22;7393;51.446;6.800;2023-07-09T05:33:01;24.80;1.00
14614;DHT22;7393;51.446;6.800;2023-07-09T05:35:27;24.90;1.00
14614;DHT22;7393;51.446;6.800;2023-07-09T05:37:56;24.90;1.00
14614;DHT22;7393;51.446;6.800;2023-07-09T05:40:23;25.00;1.00
14614;DHT22;7393;51.446;6.800;2023-07-09T05:42:49;25.10;1.00
14614;DHT22;7393;51.446;6.800;2023-07-09T05:45:16;25.20;1.00
14614;DHT22;7393;51.446;6.800;2023-07-09T05:47:43;25.30;1.00
14614;DHT22;7393;51.446;6.800;2023-07-09T05:50:10;25.40;1.00
14614;DHT22;7393;51.446;6.800;2023-07-09T05:52:37;25.50;1.00
14614;DHT22;7393;51.446;6.800;2023-07-09T05:55:06;25.50;1.00
14614;DHT22;7393;51.446;6.800;2023-07-09T05:57:33;25.50;1.00
14614;DHT22;7393;51.446;6.800;2023-07-09T05:59:59;25.50;1.00
14614;DHT22;7393;51.446;6.800;2023-07-09T06:02:26;25.60;1.00
14614;DHT22;7393;51.446;6.800;2023-07-09T06:04:53;25.70;1.00
14614;DHT22;7393;51.446;6.800;2023-07-09T06:07:21;25.70;1.00
14614;DHT22;7393;51.446;6.800;2023-07-09T06:09:48;25.70;1.00
14614;DHT22;7393;51.446;6.800;2023-07-09T06:12:16;25.80;1.00
14614;DHT22;7393;51.446;6.800;2023-07-09T06:14:45;25.80;1.00
14614;DHT22;7393;51.446;6.800;2023-07-09T06:17:12;25.80;1.00
14614;DHT22;7393;51.446;6.800;2023-07-09T06:19:39;25.90;1.00
14614;DHT22;7393;51.446;6.800;2023-07-09T06:22:06;25.90;1.00
14614;DHT22;7393;51.446;6.800;2023-07-09T06:24:32;25.90;1.00
14614;DHT22;7393;51.446;6.800;2023-07-09T06:26:59;26.00;1.00
14614;DHT22;7393;51.446;6.800;2023-07-09T06:29:27;26.00;1.00
14614;DHT22;7393;51.446;6.800;2023-07-09T06:31:54;26.10;1.00
14614;DHT22;7393;51.446;6.800;2023-07-09T06:34:21;26.00;1.00
14614;DHT22;7393;51.446;6.800;2023-07-09T06:36:47;26.10;1.00
14614;DHT22;7393;51.446;6.800;2023-07-09T06:39:14;26.10;1.00
14614;DHT22;7393;51.446;6.800;2023-07-09T06:41:41;26.10;1.00
14614;DHT22;7393;51.446;6.800;2023-07-09T06:44:09;26.20;1.00
14614;DHT22;7393;51.446;6.800;2023-07-09T06:46:37;26.30;1.00
14614;DHT22;7393;51.446;6.800;2023-07-09T06:49:04;26.30;1.00
14614;DHT22;7393;51.446;6.800;2023-07-09T06:51:32;26.30;1.00
14614;DHT22;7393;51.446;6.800;2023-07-09T06:53:59;26.40;1.00
14614;DHT22;7393;51.446;6.800;2023-07-09T06:56:25;26.50;1.00
14614;DHT22;7393;51.446;6.800;2023-07-09T06:58:52;26.50;1.00
14614;DHT22;7393;51.446;6.800;2023-07-09T07:01:19;26.60;1.00
14614;DHT22;7393;51.446;6.800;2023-07-09T07:03:47;26.70;1.00
14614;DHT22;7393;51.446;6.800;2023-07-09T07:06:14;26.70;1.00
14614;DHT22;7393;51.446;6.800;2023-07-09T07:08:42;26.80;1.00
14614;DHT22;7393;51.446;6.800;2023-07-09T07:11:08;26.80;1.00
14614;DHT22;7393;51.446;6.800;2023-07-09T07:13:37;26.90;1.00
14614;DHT22;7393;51.446;6.800;2023-07-09T07:16:06;26.90;1.00
14614;DHT22;7393;51.446;6.800;2023-07-09T07:18:33;27.00;1.00
14614;DHT22;7393;51.446;6.800;2023-07-09T07:21:02;27.00;1.00
14614;DHT22;7393;51.446;6.800;2023-07-09T07:23:29;27.10;1.00
14614;DHT22;7393;51.446;6.800;2023-07-09T07:25:56;27.20;1.00
14614;DHT22;7393;51.446;6.800;2023-07-09T07:28:23;27.30;1.00
14614;DHT22;7393;51.446;6.800;2023-07-09T07:30:58;27.40;1.00
14614;DHT22;7393;51.446;6.800;2023-07-09T07:33:25;27.50;1.00
14614;DHT22;7393;51.446;6.800;2023-07-09T07:35:52;27.60;1.00
14614;DHT22;7393;51.446;6.800;2023-07-09T07:38:20;27.70;1.00
14614;DHT22;7393;51.446;6.800;2023-07-09T07:40:47;27.90;1.00
14614;DHT22;7393;51.446;6.800;2023-07-09T07:43:13;28.00;1.00
14614;DHT22;7393;51.446;6.800;2023-07-09T07:45:40;28.10;1.00
14614;DHT22;7393;51.446;6.800;2023-07-09T07:48:07;28.30;1.00
14614;DHT22;7393;51.446;6.800;2023-07-09T07:50:35;28.30;1.00
14614;DHT22;7393;51.446;6.800;2023-07-09T07:53:03;28.50;1.00
14614;DHT22;7393;51.446;6.800;2023-07-09T07:55:32;28.60;1.00
14614;DHT22;7393;51.446;6.800;2023-07-09T07:57:58;28.80;1.00
14614;DHT22;7393;51.446;6.800;2023-07-09T08:00:28;28.90;1.00
14614;DHT22;7393;51.446;6.800;2023-07-09T08:02:56;29.10;1.00
14614;DHT22;7393;51.446;6.800;2023-07-09T08:05:22;29.20;1.00
14614;DHT22;7393;51.446;6.800;2023-07-09T08:07:50;29.30;1.00
14614;DHT22;7393;51.446;6.800;2023-07-09T08:10:17;29.40;1.00
14614;DHT22;7393;51.446;6.800;2023-07-09T08:12:45;29.60;1.00
14614;DHT22;7393;51.446;6.800;2023-07-09T08:15:12;29.80;1.00
14614;DHT22;7393;51.446;6.800;2023-07-09T08:17:39;29.90;1.00
14614;DHT22;7393;51.446;6.800;2023-07-09T08:20:06;30.00;1.00
14614;DHT22;7393;51.446;6.800;2023-07-09T08:22:33;30.20;1.00
14614;DHT22;7393;51.446;6.800;2023-07-09T08:25:00;30.30;1.00
14614;DHT22;7393;51.446;6.800;2023-07-09T08:27:27;30.40;1.00
14614;DHT22;7393;51.446;6.800;2023-07-09T08:29:55;30.60;1.00
14614;DHT22;7393;51.446;6.800;2023-07-09T08:32:22;30.70;1.00
14614;DHT22;7393;51.446;6.800;2023-07-09T08:34:49;30.80;1.00
14614;DHT22;7393;51.446;6.800;2023-07-09T08:37:15;30.90;1.00
14614;DHT22;7393;51.446;6.800;2023-07-09T08:39:42;31.00;1.00
14614;DHT22;7393;51.446;6.800;2023-07-09T08:42:10;31.10;1.00
14614;DHT22;7393;51.446;6.800;2023-07-09T08:44:57;31.20;1.00
14614;DHT22;7393;51.446;6.800;2023-07-09T08:47:33;31.30;1.00
14614;DHT22;7393;51.446;6.800;2023-07-09T08:50:05;31.40;1.00
14614;DHT22;7393;51.446;6.800;2023-07-09T08:52:35;31.60;1.00
14614;DHT22;7393;51.446;6.800;2023-07-09T08:55:06;31.60;1.00
14614;DHT22;7393;51.446;6.800;2023-07-09T08:57:37;31.80;1.00
14614;DHT22;7393;51.446;6.800;2023-07-09T09:00:14;31.90;1.00
14614;DHT22;7393;51.446;6.800;2023-07-09T09:02:46;32.00;1.00
14614;DHT22;7393;51.446;6.800;2023-07-09T09:05:19;32.10;1.00
14614;DHT22;7393;51.446;6.800;2023-07-09T09:07:50;32.20;1.00
14614;DHT22;7393;51.446;6.800;2023-07-09T09:10:26;32.30;1.00
14614;DHT22;7393;51.446;6.800;2023-07-09T09:13:05;32.40;1.00
14614;DHT22;7393;51.446;6.800;2023-07-09T09:15:34;32.60;1.00
14614;DHT22;7393;51.446;6.800;2023-07-09T09:18:20;32.70;1.00
14614;DHT22;7393;51.446;6.800;2023-07-09T09:20:53;32.80;1.00
14614;DHT22;7393;51.446;6.800;2023-07-09T09:23:22;32.90;1.00
14614;DHT22;7393;51.446;6.800;2023-07-09T09:25:52;33.00;1.00
14614;DHT22;7393;51.446;6.800;2023-07-09T09:28:21;33.10;1.00
14614;DHT22;7393;51.446;6.800;2023-07-09T09:30:52;33.20;1.00
14614;DHT22;7393;51.446;6.800;2023-07-09T09:33:19;33.30;1.00
14614;DHT22;7393;51.446;6.800;2023-07-09T09:35:45;33.50;1.00
14614;DHT22;7393;51.446;6.800;2023-07-09T09:38:17;33.50;1.00
14614;DHT22;7393;51.446;6.800;2023-07-09T09:40:44;33.60;1.00
14614;DHT22;7393;51.446;6.800;2023-07-09T09:43:13;33.70;1.00
14614;DHT22;7393;51.446;6.800;2023-07-09T09:45:41;33.80;1.00
14614;DHT22;7393;51.446;6.800;2023-07-09T09:48:19;33.90;1.00
14614;DHT22;7393;51.446;6.800;2023-07-09T09:50:47;34.00;1.00
14614;DHT22;7393;51.446;6.800;2023-07-09T09:53:20;34.10;1.00
14614;DHT22;7393;51.446;6.800;2023-07-09T09:55:48;34.10;1.00
14614;DHT22;7393;51.446;6.800;2023-07-09T09:58:16;34.10;1.00
14614;DHT22;7393;51.446;6.800;2023-07-09T10:00:48;34.30;1.00
14614;DHT22;7393;51.446;6.800;2023-07-09T10:03:18;34.50;1.00
14614;DHT22;7393;51.446;6.800;2023-07-09T10:05:50;34.50;1.00
14614;DHT22;7393;51.446;6.800;2023-07-09T10:08:25;34.70;1.00
14614;DHT22;7393;51.446;6.800;2023-07-09T10:11:08;34.80;1.00
14614;DHT22;7393;51.446;6.800;2023-07-09T10:13:40;34.90;1.00
14614;DHT22;7393;51.446;6.800;2023-07-09T10:16:10;35.10;1.00
14614;DHT22;7393;51.446;6.800;2023-07-09T10:18:53;35.20;1.00
14614;DHT22;7393;51.446;6.800;2023-07-09T10:21:27;35.30;1.00
14614;DHT22;7393;51.446;6.800;2023-07-09T10:24:09;35.50;1.00
14614;DHT22;7393;51.446;6.800;2023-07-09T10:26:42;35.60;1.00
14614;DHT22;7393;51.446;6.800;2023-07-09T10:29:33;35.70;1.00
14614;DHT22;7393;51.446;6.800;2023-07-09T10:32:12;35.70;1.00
14614;DHT22;7393;51.446;6.800;2023-07-09T10:34:52;35.80;1.00
14614;DHT22;7393;51.446;6.800;2023-07-09T10:43:01;36.20;1.00
14614;DHT22;7393;51.446;6.800;2023-07-09T10:45:32;36.20;1.00
14614;DHT22;7393;51.446;6.800;2023-07-09T10:48:04;36.30;1.00
14614;DHT22;7393;51.446;6.800;2023-07-09T10:50:38;36.30;1.00
14614;DHT22;7393;51.446;6.800;2023-07-09T10:53:11;36.30;1.00
14614;DHT22;7393;51.446;6.800;2023-07-09T10:55:43;36.50;1.00
14614;DHT22;7393;51.446;6.800;2023-07-09T10:58:22;36.60;1.00
14614;DHT22;7393;51.446;6.800;2023-07-09T11:00:53;36.70;1.00
14614;DHT22;7393;51.446;6.800;2023-07-09T11:03:26;36.70;1.00
14614;DHT22;7393;51.446;6.800;2023-07-09T11:05:59;36.70;1.00
14614;DHT22;7393;51.446;6.800;2023-07-09T11:08:28;36.80;1.00
14614;DHT22;7393;51.446;6.800;2023-07-09T11:11:00;36.90;1.00
14614;DHT22;7393;51.446;6.800;2023-07-09T11:13:35;37.10;1.00
14614;DHT22;7393;51.446;6.800;2023-07-09T11:16:05;37.20;1.00
14614;DHT22;7393;51.446;6.800;2023-07-09T11:18:34;37.20;1.00
14614;DHT22;7393;51.446;6.800;2023-07-09T11:21:06;37.10;1.00
14614;DHT22;7393;51.446;6.800;2023-07-09T11:23:45;37.20;1.00
14614;DHT22;7393;51.446;6.800;2023-07-09T11:26:22;37.30;1.00
14614;DHT22;7393;51.446;6.800;2023-07-09T11:28:52;37.40;1.00
14614;DHT22;7393;51.446;6.800;2023-07-09T11:31:22;37.50;1.00
14614;DHT22;7393;51.446;6.800;2023-07-09T11:33:59;37.50;1.00
14614;DHT22;7393;51.446;6.800;2023-07-09T11:36:30;37.60;1.00
14614;DHT22;7393;51.446;6.800;2023-07-09T11:38:57;37.50;1.00
14614;DHT22;7393;51.446;6.800;2023-07-09T11:41:41;37.60;1.00
14614;DHT22;7393;51.446;6.800;2023-07-09T11:44:14;37.70;1.00
14614;DHT22;7393;51.446;6.800;2023-07-09T11:46:52;37.80;1.00
14614;DHT22;7393;51.446;6.800;2023-07-09T11:49:26;37.80;1.00
14614;DHT22;7393;51.446;6.800;2023-07-09T11:51:59;37.80;1.00
14614;DHT22;7393;51.446;6.800;2023-07-09T11:54:27;37.90;1.00
14614;DHT22;7393;51.446;6.800;2023-07-09T11:56:55;38.00;1.00
14614;DHT22;7393;51.446;6.800;2023-07-09T11:59:22;37.90;1.00
14614;DHT22;7393;51.446;6.800;2023-07-09T12:01:49;37.90;1.00
14614;DHT22;7393;51.446;6.800;2023-07-09T12:04:21;37.90;1.00
14614;DHT22;7393;51.446;6.800;2023-07-09T12:06:48;38.00;1.00
14614;DHT22;7393;51.446;6.800;2023-07-09T12:09:19;38.10;1.00
14614;DHT22;7393;51.446;6.800;2023-07-09T12:11:48;38.10;1.00
14614;DHT22;7393;51.446;6.800;2023-07-09T12:14:17;38.00;1.00
14614;DHT22;7393;51.446;6.800;2023-07-09T12:16:46;38.00;1.00
14614;DHT22;7393;51.446;6.800;2023-07-09T12:19:14;37.90;1.00
14614;DHT22;7393;51.446;6.800;2023-07-09T12:21:44;38.00;1.00
14614;DHT22;7393;51.446;6.800;2023-07-09T12:24:19;38.00;1.00
14614;DHT22;7393;51.446;6.800;2023-07-09T12:26:51;38.00;1.00
14614;DHT22;7393;51.446;6.800;2023-07-09T12:29:18;38.00;1.00
14614;DHT22;7393;51.446;6.800;2023-07-09T12:31:45;37.90;1.00
14614;DHT22;7393;51.446;6.800;2023-07-09T12:34:13;37.90;1.00
14614;DHT22;7393;51.446;6.800;2023-07-09T12:36:44;37.90;1.00
14614;DHT22;7393;51.446;6.800;2023-07-09T12:39:12;38.00;1.00
14614;DHT22;7393;51.446;6.800;2023-07-09T12:41:44;38.10;1.00
14614;DHT22;7393;51.446;6.800;2023-07-09T12:44:16;38.10;1.00
14614;DHT22;7393;51.446;6.800;2023-07-09T12:46:44;38.10;1.00
14614;DHT22;7393;51.446;6.800;2023-07-09T12:49:21;38.10;1.00
14614;DHT22;7393;51.446;6.800;2023-07-09T12:51:48;38.10;1.00
14614;DHT22;7393;51.446;6.800;2023-07-09T12:54:17;38.20;1.00
14614;DHT22;7393;51.446;6.800;2023-07-09T12:56:46;38.20;1.00
14614;DHT22;7393;51.446;6.800;2023-07-09T12:59:18;38.10;1.00
14614;DHT22;7393;51.446;6.800;2023-07-09T13:01:50;38.10;1.00
14614;DHT22;7393;51.446;6.800;2023-07-09T13:04:17;38.00;1.00
14614;DHT22;7393;51.446;6.800;2023-07-09T13:06:45;38.00;1.00
14614;DHT22;7393;51.446;6.800;2023-07-09T13:09:19;38.00;1.00
14614;DHT22;7393;51.446;6.800;2023-07-09T13:11:48;37.90;1.00
14614;DHT22;7393;51.446;6.800;2023-07-09T13:14:20;37.90;1.00
14614;DHT22;7393;51.446;6.800;2023-07-09T13:16:48;37.70;1.00
14614;DHT22;7393;51.446;6.800;2023-07-09T13:19:16;37.60;1.00
14614;DHT22;7393;51.446;6.800;2023-07-09T13:21:43;37.50;1.00
14614;DHT22;7393;51.446;6.800;2023-07-09T13:24:16;37.50;1.00
14614;DHT22;7393;51.446;6.800;2023-07-09T13:26:43;37.40;1.00
14614;DHT22;7393;51.446;6.800;2023-07-09T13:29:16;37.40;1.00
14614;DHT22;7393;51.446;6.800;2023-07-09T13:31:44;37.30;1.00
14614;DHT22;7393;51.446;6.800;2023-07-09T13:34:19;37.20;1.00
14614;DHT22;7393;51.446;6.800;2023-07-09T13:36:47;37.00;1.00
14614;DHT22;7393;51.446;6.800;2023-07-09T13:39:14;36.80;1.00
14614;DHT22;7393;51.446;6.800;2023-07-09T13:41:43;36.70;1.00
14614;DHT22;7393;51.446;6.800;2023-07-09T13:44:16;36.70;1.00
14614;DHT22;7393;51.446;6.800;2023-07-09T13:46:44;36.50;1.00
14614;DHT22;7393;51.446;6.800;2023-07-09T13:49:12;36.40;1.00
14614;DHT22;7393;51.446;6.800;2023-07-09T13:51:40;36.20;1.00
14614;DHT22;7393;51.446;6.800;2023-07-09T13:54:15;36.10;1.00
14614;DHT22;7393;51.446;6.800;2023-07-09T13:56:42;36.00;1.00
14614;DHT22;7393;51.446;6.800;2023-07-09T13:59:14;35.60;1.00
14614;DHT22;7393;51.446;6.800;2023-07-09T14:01:43;35.20;1.00
14614;DHT22;7393;51.446;6.800;2023-07-09T14:04:11;34.80;1.00
14614;DHT22;7393;51.446;6.800;2023-07-09T14:06:39;34.50;1.00
14614;DHT22;7393;51.446;6.800;2023-07-09T14:09:08;34.20;1.00
14614;DHT22;7393;51.446;6.800;2023-07-09T14:11:36;33.90;1.00
14614;DHT22;7393;51.446;6.800;2023-07-09T14:14:15;33.70;1.00
14614;DHT22;7393;51.446;6.800;2023-07-09T14:16:44;33.40;1.00
14614;DHT22;7393;51.446;6.800;2023-07-09T14:19:14;33.30;1.00
14614;DHT22;7393;51.446;6.800;2023-07-09T14:21:41;33.10;1.00
14614;DHT22;7393;51.446;6.800;2023-07-09T14:24:17;32.90;1.00
14614;DHT22;7393;51.446;6.800;2023-07-09T14:26:45;32.70;1.00
14614;DHT22;7393;51.446;6.800;2023-07-09T14:29:12;32.40;1.00
14614;DHT22;7393;51.446;6.800;2023-07-09T14:31:39;32.30;1.00
14614;DHT22;7393;51.446;6.800;2023-07-09T14:34:18;32.10;1.00
14614;DHT22;7393;51.446;6.800;2023-07-09T14:36:45;32.10;1.00
14614;DHT22;7393;51.446;6.800;2023-07-09T14:39:12;31.90;1.00
14614;DHT22;7393;51.446;6.800;2023-07-09T14:41:40;31.60;1.00
14614;DHT22;7393;51.446;6.800;2023-07-09T14:44:19;31.30;1.00
14614;DHT22;7393;51.446;6.800;2023-07-09T14:46:47;30.80;1.00
14614;DHT22;7393;51.446;6.800;2023-07-09T14:49:16;30.40;1.00
14614;DHT22;7393;51.446;6.800;2023-07-09T14:51:43;30.20;1.00
14614;DHT22;7393;51.446;6.800;2023-07-09T14:54:18;30.00;1.00
14614;DHT22;7393;51.446;6.800;2023-07-09T14:56:45;29.80;1.00
14614;DHT22;7393;51.446;6.800;2023-07-09T14:59:12;29.70;1.00
14614;DHT22;7393;51.446;6.800;2023-07-09T15:01:39;29.60;1.00
14614;DHT22;7393;51.446;6.800;2023-07-09T15:04:27;29.40;1.00
14614;DHT22;7393;51.446;6.800;2023-07-09T15:06:55;29.30;1.00
14614;DHT22;7393;51.446;6.800;2023-07-09T15:09:23;29.20;1.00
14614;DHT22;7393;51.446;6.800;2023-07-09T15:11:52;28.90;1.00
14614;DHT22;7393;51.446;6.800;2023-07-09T15:14:20;28.60;1.00
14614;DHT22;7393;51.446;6.800;2023-07-09T15:16:47;28.40;1.00
14614;DHT22;7393;51.446;6.800;2023-07-09T15:19:16;28.10;1.00
14614;DHT22;7393;51.446;6.800;2023-07-09T15:21:45;27.90;1.00
14614;DHT22;7393;51.446;6.800;2023-07-09T15:24:16;27.70;1.00
14614;DHT22;7393;51.446;6.800;2023-07-09T15:26:46;27.50;99.90
14614;DHT22;7393;51.446;6.800;2023-07-09T15:29:14;27.40;1.00
14614;DHT22;7393;51.446;6.800;2023-07-09T15:31:41;27.30;1.00
14614;DHT22;7393;51.446;6.800;2023-07-09T15:34:08;27.20;99.90
14614;DHT22;7393;51.446;6.800;2023-07-09T15:36:35;27.20;1.00
14614;DHT22;7393;51.446;6.800;2023-07-09T15:39:03;27.10;1.00
14614;DHT22;7393;51.446;6.800;2023-07-09T15:41:30;27.10;1.00
14614;DHT22;7393;51.446;6.800;2023-07-09T15:43:57;27.00;1.00
14614;DHT22;7393;51.446;6.800;2023-07-09T15:46:24;27.00;99.90
14614;DHT22;7393;51.446;6.800;2023-07-09T15:48:51;26.90;1.00
14614;DHT22;7393;51.446;6.800;2023-07-09T15:51:18;26.90;1.00
14614;DHT22;7393;51.446;6.800;2023-07-09T15:53:45;26.80;99.90
14614;DHT22;7393;51.446;6.800;2023-07-09T15:56:20;26.80;1.00
14614;DHT22;7393;51.446;6.800;2023-07-09T15:58:49;26.70;99.90
14614;DHT22;7393;51.446;6.800;2023-07-09T16:01:17;26.70;1.00
14614;DHT22;7393;51.446;6.800;2023-07-09T16:03:46;26.60;73.00
14614;DHT22;7393;51.446;6.800;2023-07-09T16:06:13;26.70;99.90
14614;DHT22;7393;51.446;6.800;2023-07-09T16:08:40;26.70;1.00
14614;DHT22;7393;51.446;6.800;2023-07-09T16:11:15;26.80;1.00
14614;DHT22;7393;51.446;6.800;2023-07-09T16:13:43;26.70;99.90
14614;DHT22;7393;51.446;6.800;2023-07-09T16:16:13;26.60;1.00
14614;DHT22;7393;51.446;6.800;2023-07-09T16:18:39;26.60;1.00
14614;DHT22;7393;51.446;6.800;2023-07-09T16:21:12;26.60;99.90
14614;DHT22;7393;51.446;6.800;2023-07-09T16:23:42;26.70;99.90